Time;durP1;ratioP1;P1;durP2;ratioP2;P2;SDS_P1;SDS_P2;PMS_P1;PMS_P2;Temp;Humidity;BMP_temperature;BMP_pressure;BME280_temperature;BME280_humidity;BME280_pressure;Samples;Min_cycle;Max_cycle;Signal;HPM_P1;HPM_P2
2021/11/10 00:00:12;;;;;;;12.33;5.10;;;;;;;;;;10199621;28;20380;-66
2021/11/10 00:05:12;;;;;;;5.32;2.78;;;;;;;;;;10205187;28;20093;-65
2021/11/10 00:10:11;;;;;;;17.30;5.18;;;;;;;;;;10196598;28;20023;-65
2021/11/10 00:15:10;;;;;;;4.53;2.70;;;;;;;;;;10201711;28;20018;-63
2021/11/10 00:20:08;;;;;;;10.73;4.05;;;;;;;;;;10202223;28;20057;-63
2021/11/10 00:25:06;;;;;;;5.68;2.50;;;;;;;;;;10201721;28;20399;-62
2021/11/10 00:30:04;;;;;;;11.38;4.95;;;;;;;;;;10201037;28;20046;-63
2021/11/10 00:35:02;;;;;;;7.65;3.67;;;;;;;;;;10186488;28;20555;-63
2021/11/10 00:40:00;;;;;;;5.70;3.13;;;;;;;;;;10206293;28;20026;-64
2021/11/10 00:44:57;;;;;;;8.00;3.70;;;;;;;;;;10202335;28;20383;-64
2021/11/10 00:49:55;;;;;;;9.50;3.87;;;;;;;;;;10193029;28;20662;-64
2021/11/10 00:54:52;;;;;;;4.97;3.17;;;;;;;;;;10204668;28;20110;-64
2021/11/10 00:59:49;;;;;;;18.33;5.07;;;;;;;;;;10204009;28;20038;-65
2021/11/10 01:04:48;;;;;;;8.95;3.92;;;;;;;;;;10219102;28;20038;-64
2021/11/10 01:09:47;;;;;;;9.30;3.17;;;;;;;;;;10203641;28;20093;-60
2021/11/10 01:14:45;;;;;;;9.82;4.47;;;;;;;;;;10214364;28;20026;-63
2021/11/10 01:19:45;;;;;;;9.50;3.65;;;;;;;;;;10217235;28;20034;-63
2021/11/10 01:24:45;;;;;;;5.72;3.58;;;;;;;;;;10213647;28;20129;-60
2021/11/10 01:29:44;;;;;;;10.00;4.35;;;;;;;;;;10207780;28;20022;-62
2021/11/10 01:34:42;;;;;;;10.93;3.07;;;;;;;;;;10187269;28;1145453;-61
2021/11/10 01:39:44;;;;;;;6.18;3.70;;;;;;;;;;10228077;28;20121;-62
2021/11/10 01:44:47;;;;;;;13.23;4.95;;;;;;;;;;10229359;28;20204;-62
2021/11/10 01:49:45;;;;;;;8.18;3.95;;;;;;;;;;10199670;28;20037;-62
2021/11/10 01:54:45;;;;;;;11.15;4.43;;;;;;;;;;10200393;28;20137;-61
2021/11/10 02:00:03;;;;;;;7.63;3.88;;;;;;;;;;10218720;28;20038;-61
2021/11/10 02:05:08;;;;;;;20.50;5.65;;;;;;;;;;10203353;28;20078;-61
2021/11/10 02:10:08;;;;;;;9.82;3.75;;;;;;;;;;10214164;28;20161;-63
2021/11/10 02:15:07;;;;;;;11.45;3.35;;;;;;;;;;10206307;28;20113;-62
2021/11/10 02:20:05;;;;;;;;;;;;;;;;;;10213890;28;20081;-62
2021/11/10 02:25:08;;;;;;;7.55;3.28;;;;;;;;;;10208540;28;19955;-62
2021/11/10 02:30:07;;;;;;;11.60;4.60;;;;;;;;;;10219317;28;20232;-63
2021/11/10 02:35:05;;;;;;;3.03;2.72;;;;;;;;;;10214099;28;20678;-62
2021/11/10 02:40:03;;;;;;;6.82;4.00;;;;;;;;;;10212678;28;20057;-60
2021/11/10 02:45:00;;;;;;;11.50;3.50;;;;;;;;;;10224634;28;20037;-61
2021/11/10 02:49:58;;;;;;;8.23;3.77;;;;;;;;;;10214776;28;20026;-62
2021/11/10 02:54:55;;;;;;;9.03;2.77;;;;;;;;;;10225703;28;20114;-63
2021/11/10 02:59:52;;;;;;;13.17;5.40;;;;;;;;;;10220915;28;20472;-62
2021/11/10 03:04:51;;;;;;;10.93;5.03;;;;;;;;;;10234726;28;20034;-62
2021/11/10 03:09:48;;;;;;;13.27;4.53;;;;;;;;;;10219866;28;20038;-61
2021/11/10 03:14:57;;;;;;;24.25;8.63;;;;;;;;;;10217620;28;20410;-61
2021/11/10 03:19:55;;;;;;;11.63;5.18;;;;;;;;;;10226881;28;20045;-62
2021/11/10 03:24:54;;;;;;;17.27;5.97;;;;;;;;;;10216507;28;20515;-61
2021/11/10 03:29:57;;;;;;;16.50;7.43;;;;;;;;;;10226537;28;20038;-63
2021/11/10 03:34:57;;;;;;;22.55;6.88;;;;;;;;;;10225724;28;20065;-63
2021/11/10 03:40:05;;;;;;;12.10;5.28;;;;;;;;;;10218615;28;20575;-62
2021/11/10 03:45:03;;;;;;;6.00;3.80;;;;;;;;;;10209357;28;20026;-61
2021/11/10 03:50:02;;;;;;;10.82;6.40;;;;;;;;;;10229625;28;20230;-61
2021/11/10 03:54:59;;;;;;;7.15;3.50;;;;;;;;;;10240782;23;20395;-64
2021/11/10 03:59:57;;;;;;;9.27;4.17;;;;;;;;;;10221137;28;20112;-64
2021/11/10 04:04:54;;;;;;;12.90;5.17;;;;;;;;;;10256070;28;20022;-71
2021/11/10 04:09:52;;;;;;;19.33;7.23;;;;;;;;;;10207186;28;20583;-65
2021/11/10 04:14:50;;;;;;;9.45;6.28;;;;;;;;;;10239378;28;20041;-64
2021/11/10 04:19:47;;;;;;;6.93;3.37;;;;;;;;;;10256360;28;20403;-65
2021/11/10 04:24:46;;;;;;;8.83;5.37;;;;;;;;;;10257492;28;20072;-64
2021/11/10 04:29:48;;;;;;;8.98;3.47;;;;;;;;;;10255498;28;20022;-64
2021/11/10 04:34:46;;;;;;;8.63;3.67;;;;;;;;;;10257442;28;20030;-64
2021/11/10 04:39:43;;;;;;;7.70;4.07;;;;;;;;;;10218311;28;20030;-65
2021/11/10 04:44:47;;;;;;;11.88;4.32;;;;;;;;;;10214627;28;20301;-63
2021/11/10 04:49:45;;;;;;;10.68;5.07;;;;;;;;;;10220543;28;20034;-64
2021/11/10 04:54:42;;;;;;;14.60;7.57;;;;;;;;;;10269290;28;20038;-64
2021/11/10 04:59:40;;;;;;;10.77;5.00;;;;;;;;;;10254161;28;20491;-64
2021/11/10 05:04:39;;;;;;;13.47;5.17;;;;;;;;;;10254737;28;20510;-64
2021/11/10 05:09:37;;;;;;;11.68;5.78;;;;;;;;;;10254056;28;20513;-63
2021/11/10 05:14:37;;;;;;;9.90;4.78;;;;;;;;;;10254989;28;20038;-63
2021/11/10 05:19:35;;;;;;;12.17;5.70;;;;;;;;;;10250251;28;20038;-64
2021/11/10 05:24:32;;;;;;;8.93;6.17;;;;;;;;;;10237029;28;20422;-64
2021/11/10 05:29:30;;;;;;;12.47;6.93;;;;;;;;;;10255156;28;20041;-63
2021/11/10 05:34:27;;;;;;;9.17;4.77;;;;;;;;;;10254658;28;20026;-64
2021/11/10 05:39:24;;;;;;;13.60;5.37;;;;;;;;;;10253860;28;20037;-64
2021/11/10 05:44:22;;;;;;;7.90;3.47;;;;;;;;;;10224633;28;20478;-64
2021/11/10 05:49:19;;;;;;;12.50;4.67;;;;;;;;;;10211760;28;20037;-63
2021/11/10 05:54:17;;;;;;;14.70;6.23;;;;;;;;;;10236768;28;20072;-65
2021/11/10 05:59:14;;;;;;;13.23;4.80;;;;;;;;;;10240672;28;20042;-65
2021/11/10 06:04:12;;;;;;;11.27;5.37;;;;;;;;;;10227552;28;20081;-62
2021/11/10 06:09:10;;;;;;;8.23;4.90;;;;;;;;;;10235652;28;20096;-62
2021/11/10 06:14:07;;;;;;;14.87;6.20;;;;;;;;;;10234739;28;20029;-64
2021/11/10 06:19:04;;;;;;;12.33;6.20;;;;;;;;;;10232147;28;20059;-65
2021/11/10 06:24:02;;;;;;;11.00;4.90;;;;;;;;;;10233725;28;20119;-63
2021/11/10 06:29:00;;;;;;;10.98;5.68;;;;;;;;;;10233859;28;20030;-65
2021/11/10 06:33:57;;;;;;;8.33;4.83;;;;;;;;;;10236751;28;20068;-64
2021/11/10 06:38:54;;;;;;;10.63;5.87;;;;;;;;;;10242500;28;20077;-62
2021/11/10 06:43:52;;;;;;;9.63;5.63;;;;;;;;;;10233108;28;20438;-63
2021/11/10 06:48:49;;;;;;;7.67;4.90;;;;;;;;;;10249319;28;20033;-64
2021/11/10 06:53:47;;;;;;;14.43;4.40;;;;;;;;;;10240767;28;20514;-63
2021/11/10 06:58:44;;;;;;;10.83;4.10;;;;;;;;;;10242869;28;20462;-65
2021/11/10 07:03:42;;;;;;;12.03;4.00;;;;;;;;;;10249057;28;20514;-60
2021/11/10 07:08:39;;;;;;;10.30;6.13;;;;;;;;;;10254442;28;20124;-60
2021/11/10 07:13:36;;;;;;;9.03;4.97;;;;;;;;;;10257312;28;20030;-61
2021/11/10 07:18:34;;;;;;;10.33;5.23;;;;;;;;;;10244896;28;20034;-62
2021/11/10 07:23:32;;;;;;;8.90;3.87;;;;;;;;;;10242117;28;20569;-60
2021/11/10 07:28:30;;;;;;;9.98;4.40;;;;;;;;;;10244540;28;20034;-62
2021/11/10 07:33:28;;;;;;;8.40;5.53;;;;;;;;;;10241629;28;20029;-62
2021/11/10 07:38:25;;;;;;;10.53;3.90;;;;;;;;;;10243624;28;20038;-62
2021/11/10 07:43:24;;;;;;;8.87;4.33;;;;;;;;;;10237277;28;20575;-60
2021/11/10 07:48:22;;;;;;;7.20;4.68;;;;;;;;;;10250067;28;20037;-63
2021/11/10 07:53:19;;;;;;;7.80;5.53;;;;;;;;;;10243881;28;20038;-62
2021/11/10 07:58:16;;;;;;;7.97;4.63;;;;;;;;;;10230347;28;20104;-63
2021/11/10 08:03:14;;;;;;;10.43;5.17;;;;;;;;;;10255386;28;20049;-63
2021/11/10 08:08:11;;;;;;;7.77;4.63;;;;;;;;;;10238691;28;20150;-62
2021/11/10 08:13:09;;;;;;;10.73;6.97;;;;;;;;;;10234778;28;20406;-61
2021/11/10 08:18:07;;;;;;;9.93;5.50;;;;;;;;;;10234866;28;20356;-62
2021/11/10 08:23:04;;;;;;;9.10;4.17;;;;;;;;;;10244263;28;20327;-63
2021/11/10 08:28:02;;;;;;;12.07;6.13;;;;;;;;;;10232949;28;20042;-63
2021/11/10 08:33:00;;;;;;;13.13;7.30;;;;;;;;;;10250223;28;20026;-62
2021/11/10 08:37:57;;;;;;;9.00;5.17;;;;;;;;;;10238400;28;20041;-62
2021/11/10 08:42:55;;;;;;;17.60;8.20;;;;;;;;;;10247332;28;20057;-64
2021/11/10 08:47:53;;;;;;;13.67;6.30;;;;;;;;;;10247009;28;20053;-64
2021/11/10 08:52:50;;;;;;;4.95;3.45;;;;;;;;;;10244272;28;20471;-63
2021/11/10 08:57:49;;;;;;;2.73;1.87;;;;;;;;;;10243650;28;20037;-62
2021/11/10 09:02:48;;;;;;;4.47;2.78;;;;;;;;;;10220061;28;20056;-64
2021/11/10 09:07:46;;;;;;;3.53;3.23;;;;;;;;;;10223486;28;20570;-66
2021/11/10 09:12:43;;;;;;;7.07;4.40;;;;;;;;;;10231818;28;20304;-65
2021/11/10 09:17:41;;;;;;;12.00;7.47;;;;;;;;;;10214951;28;20443;-64
2021/11/10 09:22:39;;;;;;;5.63;2.50;;;;;;;;;;10230163;28;20144;-64
2021/11/10 09:27:38;;;;;;;7.35;3.72;;;;;;;;;;10230940;28;20700;-64
2021/11/10 09:32:36;;;;;;;11.10;4.72;;;;;;;;;;10247712;28;20283;-64
2021/11/10 09:37:34;;;;;;;6.28;3.67;;;;;;;;;;10236246;28;20041;-65
2021/11/10 09:42:32;;;;;;;7.03;3.30;;;;;;;;;;10237432;28;20647;-63
2021/11/10 09:47:30;;;;;;;6.00;2.35;;;;;;;;;;10231179;28;20411;-61
2021/11/10 09:52:27;;;;;;;9.70;3.73;;;;;;;;;;10230112;28;20085;-64
2021/11/10 09:57:25;;;;;;;8.13;4.47;;;;;;;;;;10230769;28;20042;-64
2021/11/10 10:02:22;;;;;;;6.38;3.40;;;;;;;;;;10230115;28;20389;-65
2021/11/10 10:07:20;;;;;;;5.67;2.73;;;;;;;;;;10241349;22;20046;-62
2021/11/10 10:12:19;;;;;;;9.50;3.80;;;;;;;;;;10200095;28;20324;-65
2021/11/10 10:17:35;;;;;;;3.42;2.40;;;;;;;;;;10192945;28;20076;-64
2021/11/10 10:22:32;;;;;;;8.63;3.53;;;;;;;;;;10190447;28;20055;-63
2021/11/10 10:27:32;;;;;;;8.10;3.63;;;;;;;;;;10207489;28;20384;-60
2021/11/10 10:32:36;;;;;;;7.95;2.85;;;;;;;;;;10200037;28;20742;-64
2021/11/10 10:37:33;;;;;;;6.18;2.90;;;;;;;;;;10186164;28;20467;-65
2021/11/10 10:42:37;;;;;;;6.63;3.53;;;;;;;;;;10206166;28;20126;-65
2021/11/10 10:47:52;;;;;;;6.20;4.22;;;;;;;;;;10200047;28;20118;-65
2021/11/10 10:52:53;;;;;;;6.55;2.75;;;;;;;;;;10217928;28;20037;-62
2021/11/10 10:57:57;;;;;;;4.13;2.78;;;;;;;;;;10204688;28;20042;-64
2021/11/10 11:02:55;;;;;;;4.57;3.08;;;;;;;;;;10208038;28;20050;-65
2021/11/10 11:07:53;;;;;;;;;;;;;;;;;;10210079;28;20043;-65
2021/11/10 11:12:52;;;;;;;5.05;2.80;;;;;;;;;;10197753;28;19921;-64
2021/11/10 11:17:52;;;;;;;7.65;4.30;;;;;;;;;;10203517;28;20089;-63
2021/11/10 11:22:49;;;;;;;3.85;2.30;;;;;;;;;;10195053;28;20039;-61
2021/11/10 11:28:04;;;;;;;4.57;2.37;;;;;;;;;;10198979;28;20042;-63
2021/11/10 11:33:03;;;;;;;9.20;3.45;;;;;;;;;;10229541;28;20073;-62
2021/11/10 11:38:06;;;;;;;6.07;3.15;;;;;;;;;;10205833;28;20408;-63
2021/11/10 11:43:07;;;;;;;6.63;3.13;;;;;;;;;;10196850;28;20570;-62
2021/11/10 11:48:05;;;;;;;10.75;4.32;;;;;;;;;;10207463;28;20039;-61
2021/11/10 11:53:02;;;;;;;3.00;2.63;;;;;;;;;;10185609;28;20034;-63
2021/11/10 11:58:05;;;;;;;2.30;2.10;;;;;;;;;;10155660;28;20043;-64
2021/11/10 12:03:14;;;;;;;5.32;3.10;;;;;;;;;;10160853;28;20110;-64
2021/11/10 12:08:11;;;;;;;9.27;3.13;;;;;;;;;;10177745;28;20053;-65
2021/11/10 12:13:13;;;;;;;8.37;3.80;;;;;;;;;;10182776;28;20037;-64
2021/11/10 12:18:11;;;;;;;10.30;3.55;;;;;;;;;;10191640;28;20046;-63
2021/11/10 12:23:08;;;;;;;7.33;4.23;;;;;;;;;;10186604;28;20410;-62
2021/11/10 12:28:06;;;;;;;13.73;7.00;;;;;;;;;;10192824;28;20030;-64
2021/11/10 12:33:05;;;;;;;3.30;1.83;;;;;;;;;;10203243;28;20031;-64
2021/11/10 12:38:04;;;;;;;6.03;3.72;;;;;;;;;;10191854;28;20538;-65
2021/11/10 12:43:01;;;;;;;14.65;7.22;;;;;;;;;;10174158;28;20122;-64
2021/11/10 12:48:00;;;;;;;8.70;5.10;;;;;;;;;;10175985;28;20134;-64
2021/11/10 12:52:59;;;;;;;5.13;3.03;;;;;;;;;;10179019;28;20109;-64
2021/11/10 12:57:58;;;;;;;7.13;3.55;;;;;;;;;;10179646;28;20043;-64
2021/11/10 13:02:56;;;;;;;8.38;2.45;;;;;;;;;;10196265;28;20053;-63
2021/11/10 13:08:15;;;;;;;9.07;4.35;;;;;;;;;;10203155;28;22465;-62
2021/11/10 13:13:13;;;;;;;8.00;4.30;;;;;;;;;;10180605;28;20041;-63
2021/11/10 13:18:11;;;;;;;7.18;3.05;;;;;;;;;;10190465;28;20503;-62
2021/11/10 13:23:08;;;;;;;5.97;3.88;;;;;;;;;;10198752;28;20164;-63
2021/11/10 13:28:08;;;;;;;8.53;3.33;;;;;;;;;;10194612;28;20038;-60
2021/11/10 13:33:17;;;;;;;8.93;3.35;;;;;;;;;;10194994;28;20039;-60
2021/11/10 13:38:15;;;;;;;9.20;4.30;;;;;;;;;;10193011;28;20360;-61
2021/11/10 13:43:12;;;;;;;6.93;3.70;;;;;;;;;;10196147;28;20049;-63
2021/11/10 13:48:09;;;;;;;9.30;4.77;;;;;;;;;;10182037;28;20048;-63
2021/11/10 13:53:16;;;;;;;12.73;4.80;;;;;;;;;;10198255;28;20038;-62
2021/11/10 13:58:15;;;;;;;7.07;4.15;;;;;;;;;;10185863;28;20053;-63
2021/11/10 14:03:21;;;;;;;8.30;4.32;;;;;;;;;;10192932;28;20039;-62
2021/11/10 14:08:19;;;;;;;11.35;4.32;;;;;;;;;;10188568;28;20435;-62
2021/11/10 14:13:16;;;;;;;5.53;4.13;;;;;;;;;;10198673;28;20061;-62
2021/11/10 14:18:18;;;;;;;12.37;4.77;;;;;;;;;;10181823;28;20049;-62
2021/11/10 14:23:23;;;;;;;7.88;4.38;;;;;;;;;;10194660;28;20077;-60
2021/11/10 14:28:21;;;;;;;16.17;3.85;;;;;;;;;;10217446;28;20644;-60
2021/11/10 14:33:21;;;;;;;8.23;4.45;;;;;;;;;;10191301;28;20326;-62
2021/11/10 14:38:21;;;;;;;7.43;3.78;;;;;;;;;;10206808;28;20043;-62
2021/11/10 14:43:20;;;;;;;7.55;4.72;;;;;;;;;;10199962;28;20030;-64
2021/11/10 14:48:29;;;;;;;8.32;5.03;;;;;;;;;;10195286;28;20715;-64
2021/11/10 14:53:27;;;;;;;11.60;6.05;;;;;;;;;;10198168;28;20093;-61
2021/11/10 14:58:30;;;;;;;11.07;5.03;;;;;;;;;;10167779;28;20058;-62
2021/11/10 15:03:29;;;;;;;9.25;5.22;;;;;;;;;;10192772;28;20775;-62
2021/11/10 15:08:26;;;;;;;10.15;5.30;;;;;;;;;;10191302;28;20746;-64
2021/11/10 15:13:26;;;;;;;8.93;5.03;;;;;;;;;;10197743;28;20128;-65
2021/11/10 15:18:24;;;;;;;15.98;5.35;;;;;;;;;;10196676;28;20053;-64
2021/11/10 15:23:23;;;;;;;;;;;;;;;;;;10200626;28;20042;-64
2021/11/10 15:28:21;;;;;;;13.30;5.73;;;;;;;;;;10194517;28;19929;-64
2021/11/10 15:33:20;;;;;;;13.93;5.85;;;;;;;;;;10194736;28;20146;-64
2021/11/10 15:38:18;;;;;;;18.00;6.35;;;;;;;;;;10189556;28;20037;-62
2021/11/10 15:43:16;;;;;;;13.98;6.45;;;;;;;;;;10184183;28;21320;-62
2021/11/10 15:48:14;;;;;;;14.20;6.43;;;;;;;;;;10199325;28;20042;-62
2021/11/10 15:53:12;;;;;;;;;;;;;;;;;;10201555;28;20681;-63
2021/11/10 15:58:10;;;;;;;12.45;5.68;;;;;;;;;;10204160;28;19925;-63
2021/11/10 16:03:12;;;;;;;14.33;6.97;;;;;;;;;;10190226;28;20559;-64
2021/11/10 16:08:14;;;;;;;22.08;7.45;;;;;;;;;;10197608;28;20388;-64
2021/11/10 16:13:12;;;;;;;15.70;6.35;;;;;;;;;;10193421;28;20038;-62
2021/11/10 16:18:10;;;;;;;;;;;;;;;;;;10190244;28;20093;-64
2021/11/10 16:23:08;;;;;;;17.70;6.80;;;;;;;;;;10190095;28;19921;-61
2021/11/10 16:28:18;;;;;;;16.17;7.70;;;;;;;;;;10195061;28;20599;-64
2021/11/10 16:33:17;;;;;;;18.50;7.97;;;;;;;;;;10195402;28;20145;-63
2021/11/10 16:38:17;;;;;;;16.55;8.23;;;;;;;;;;10202328;28;20049;-64
2021/11/10 16:43:15;;;;;;;17.67;9.45;;;;;;;;;;10202590;28;20240;-63
2021/11/10 16:48:12;;;;;;;15.27;8.45;;;;;;;;;;10200124;28;20050;-66
2021/11/10 16:53:10;;;;;;;17.87;9.43;;;;;;;;;;10197303;28;20046;-64
2021/11/10 16:58:13;;;;;;;16.73;7.77;;;;;;;;;;10194755;28;20050;-64
2021/11/10 17:03:11;;;;;;;17.20;7.97;;;;;;;;;;10189040;28;20507;-63
2021/11/10 17:08:08;;;;;;;18.90;8.17;;;;;;;;;;10192147;28;20239;-64
2021/11/10 17:13:06;;;;;;;16.73;8.37;;;;;;;;;;10191045;28;20604;-61
2021/11/10 17:18:04;;;;;;;14.57;8.13;;;;;;;;;;10197830;28;20053;-61
2021/11/10 17:23:01;;;;;;;;;;;;;;;;;;10190116;28;20031;-62
2021/11/10 17:27:59;;;;;;;17.55;8.80;;;;;;;;;;10199578;28;19914;-62
2021/11/10 17:32:57;;;;;;;24.75;8.57;;;;;;;;;;10195708;28;20049;-62
2021/11/10 17:37:54;;;;;;;17.73;8.50;;;;;;;;;;10200451;28;20027;-63
2021/11/10 17:42:51;;;;;;;20.83;9.47;;;;;;;;;;10202459;28;20042;-62
2021/11/10 17:47:49;;;;;;;21.77;10.00;;;;;;;;;;10193798;28;20046;-64
2021/11/10 17:52:46;;;;;;;22.77;9.60;;;;;;;;;;10198390;28;20037;-64
2021/11/10 17:57:44;;;;;;;18.57;9.03;;;;;;;;;;10194713;28;20033;-64
2021/11/10 18:02:42;;;;;;;17.10;8.90;;;;;;;;;;10194481;28;20514;-63
2021/11/10 18:07:40;;;;;;;21.23;9.40;;;;;;;;;;10189167;28;20038;-61
2021/11/10 18:12:38;;;;;;;19.43;9.73;;;;;;;;;;10201011;28;20056;-63
2021/11/10 18:17:36;;;;;;;24.00;9.48;;;;;;;;;;10202594;28;20108;-64
2021/11/10 18:22:36;;;;;;;17.23;8.13;;;;;;;;;;10195349;28;20499;-64
2021/11/10 18:27:34;;;;;;;26.02;10.75;;;;;;;;;;10210234;28;20294;-63
2021/11/10 18:32:31;;;;;;;21.50;9.20;;;;;;;;;;10211137;28;20500;-62
2021/11/10 18:37:29;;;;;;;25.67;9.17;;;;;;;;;;10198437;28;20038;-64
2021/11/10 18:42:26;;;;;;;21.63;10.23;;;;;;;;;;10199587;28;20530;-63
2021/11/10 18:47:24;;;;;;;18.93;10.17;;;;;;;;;;10200624;28;20047;-63
2021/11/10 18:52:21;;;;;;;17.07;7.47;;;;;;;;;;10197138;28;20101;-64
2021/11/10 18:57:19;;;;;;;24.33;10.57;;;;;;;;;;10190602;28;20031;-63
2021/11/10 19:02:17;;;;;;;23.30;9.03;;;;;;;;;;10189994;28;20046;-60
2021/11/10 19:23:03;;;;;;;25.63;9.85;;;;;;;;;;10205203;28;20034;-64
2021/11/10 19:28:00;;;;;;;19.27;9.50;;;;;;;;;;10192611;28;20042;-67
2021/11/10 19:32:58;;;;;;;25.47;10.23;;;;;;;;;;10204573;28;20038;-65
2021/11/10 19:37:55;;;;;;;25.47;11.00;;;;;;;;;;10204626;28;20042;-65
2021/11/10 19:42:53;;;;;;;24.40;10.77;;;;;;;;;;10208745;28;20506;-60
2021/11/10 19:47:51;;;;;;;28.60;11.85;;;;;;;;;;10205041;28;20042;-63
2021/11/10 19:52:50;;;;;;;25.60;12.23;;;;;;;;;;10212594;28;20345;-64
2021/11/10 19:57:51;;;;;;;24.05;12.32;;;;;;;;;;10182867;28;20033;-64
2021/11/10 20:02:49;;;;;;;31.50;11.30;;;;;;;;;;10203535;28;20026;-62
2021/11/10 20:07:51;;;;;;;29.05;12.00;;;;;;;;;;10202610;28;20622;-64
2021/11/10 20:12:49;;;;;;;23.75;10.88;;;;;;;;;;10208235;28;20627;-63
2021/11/10 20:17:47;;;;;;;24.85;10.38;;;;;;;;;;10206295;28;20110;-64
2021/11/10 20:22:45;;;;;;;26.90;13.45;;;;;;;;;;10212913;28;20026;-69
2021/11/10 20:27:45;;;;;;;22.83;11.45;;;;;;;;;;10233705;28;20058;-68
2021/11/10 20:32:43;;;;;;;38.53;13.10;;;;;;;;;;10224095;28;20047;-67
2021/11/10 20:37:40;;;;;;;29.60;12.03;;;;;;;;;;10230395;28;20075;-64
2021/11/10 20:42:38;;;;;;;23.73;12.00;;;;;;;;;;10194180;28;20404;-64
2021/11/10 20:47:36;;;;;;;33.85;13.85;;;;;;;;;;10205773;28;20042;-63
2021/11/10 20:52:33;;;;;;;26.23;13.43;;;;;;;;;;10189120;28;20045;-63
2021/11/10 20:57:31;;;;;;;26.80;12.33;;;;;;;;;;10202739;28;20030;-66
2021/11/10 21:02:29;;;;;;;28.83;13.25;;;;;;;;;;10206590;28;20046;-66
2021/11/10 21:07:26;;;;;;;29.13;12.00;;;;;;;;;;10197881;28;20048;-65
2021/11/10 21:12:24;;;;;;;36.23;15.60;;;;;;;;;;10210330;28;20077;-65
2021/11/10 21:17:21;;;;;;;24.37;10.93;;;;;;;;;;10211103;28;20035;-65
2021/11/10 21:22:19;;;;;;;31.80;13.77;;;;;;;;;;10197911;28;20696;-65
2021/11/10 21:27:16;;;;;;;32.00;11.80;;;;;;;;;;10189600;28;20578;-67
2021/11/10 21:32:14;;;;;;;28.33;11.50;;;;;;;;;;10199002;28;20046;-64
2021/11/10 21:37:13;;;;;;;47.55;22.08;;;;;;;;;;10225780;28;20614;-64
2021/11/10 21:42:10;;;;;;;40.08;16.38;;;;;;;;;;10221193;28;20084;-65
2021/11/10 21:47:08;;;;;;;32.20;16.03;;;;;;;;;;10190867;28;20073;-65
2021/11/10 21:52:05;;;;;;;42.00;12.27;;;;;;;;;;10212733;28;20066;-66
2021/11/10 21:57:04;;;;;;;37.77;17.30;;;;;;;;;;10210726;28;20125;-65
2021/11/10 22:02:02;;;;;;;52.95;21.67;;;;;;;;;;10179006;28;20964;-64
2021/11/10 22:06:59;;;;;;;50.25;22.48;;;;;;;;;;10217216;28;20038;-64
2021/11/10 22:11:57;;;;;;;13.73;6.00;;;;;;;;;;10192568;28;20435;-64
2021/11/10 22:16:55;;;;;;;12.77;5.93;;;;;;;;;;10200447;28;20129;-64
2021/11/10 22:21:54;;;;;;;20.88;9.45;;;;;;;;;;10202559;28;20042;-64
2021/11/10 22:26:51;;;;;;;14.32;7.57;;;;;;;;;;10193131;28;20034;-67
2021/11/10 22:31:48;;;;;;;16.77;8.27;;;;;;;;;;10186449;28;20042;-64
2021/11/10 22:36:46;;;;;;;21.90;9.07;;;;;;;;;;10188071;28;20042;-65
2021/11/10 22:41:43;;;;;;;11.47;4.83;;;;;;;;;;10187081;28;20123;-65
2021/11/10 22:46:41;;;;;;;17.40;8.03;;;;;;;;;;10198521;28;20053;-65
2021/11/10 22:51:38;;;;;;;19.57;8.77;;;;;;;;;;10189419;28;20053;-65
2021/11/10 22:56:37;;;;;;;12.38;5.13;;;;;;;;;;10203350;28;20517;-65
2021/11/10 23:01:35;;;;;;;15.40;7.27;;;;;;;;;;10200279;28;20046;-65
2021/11/10 23:06:32;;;;;;;23.87;10.47;;;;;;;;;;10200708;28;20150;-63
2021/11/10 23:11:30;;;;;;;49.47;20.33;;;;;;;;;;10205469;28;20047;-67
2021/11/10 23:16:27;;;;;;;40.53;20.03;;;;;;;;;;10204776;28;20039;-65
2021/11/10 23:21:25;;;;;;;47.93;20.57;;;;;;;;;;10195297;28;20089;-64
2021/11/10 23:26:23;;;;;;;22.70;9.43;;;;;;;;;;10212390;23;20050;-63
2021/11/10 23:31:20;;;;;;;13.60;7.97;;;;;;;;;;10194761;28;20038;-63
2021/11/10 23:36:19;;;;;;;46.28;24.17;;;;;;;;;;10224688;28;20614;-61
2021/11/10 23:41:17;;;;;;;50.92;22.58;;;;;;;;;;10186828;28;20038;-62
2021/11/10 23:46:15;;;;;;;30.67;14.68;;;;;;;;;;10201384;28;20133;-63
2021/11/10 23:51:13;;;;;;;45.50;20.67;;;;;;;;;;10196787;28;20133;-63
2021/11/10 23:56:10;;;;;;;27.70;10.93;;;;;;;;;;10209732;28;20045;-64
